Time;durP1;ratioP1;P1;durP2;ratioP2;P2;SDS_P1;SDS_P2;PMS_P1;PMS_P2;Temp;Humidity;BMP_temperature;BMP_pressure;BME280_temperature;BME280_humidity;BME280_pressure;Samples;Min_cycle;Max_cycle;Signal;HPM_P1;HPM_P2
2024/01/03 00:00:25;;;;;;;30.00;20.30;;;;;;;2.05;89.57;99521.92;105229;1256;73024;-63
2024/01/03 00:03:12;;;;;;;40.30;22.60;;;;;;;2.05;89.98;99518.45;109244;1253;138409;-59
2024/01/03 00:05:39;;;;;;;31.20;20.70;;;;;;;2.08;89.94;99514.08;109350;1253;60248;-58
2024/01/03 00:08:19;;;;;;;32.00;22.00;;;;;;;2.06;89.72;99510.56;109243;1253;74130;-58
2024/01/03 00:10:49;;;;;;;34.60;21.30;;;;;;;2.04;89.49;99506.84;105074;1256;138578;-59
2024/01/03 00:13:34;;;;;;;34.60;21.80;;;;;;;2.03;89.59;99499.72;104998;1254;72256;-60
2024/01/03 00:16:04;;;;;;;31.70;20.70;;;;;;;2.03;89.71;99492.28;105044;1256;138524;-58
2024/01/03 00:18:51;;;;;;;32.70;21.10;;;;;;;2.03;89.59;99486.72;105164;1256;61340;-59
2024/01/03 00:21:23;;;;;;;33.00;20.50;;;;;;;2.00;89.60;99483.67;105078;1254;138843;-60
2024/01/03 00:23:50;;;;;;;35.70;21.50;;;;;;;1.98;89.47;99477.88;109356;1253;65733;-60
2024/01/03 00:26:17;;;;;;;32.10;20.20;;;;;;;1.97;89.49;99475.23;109298;1252;71412;-58
2024/01/03 00:28:43;;;;;;;36.70;21.10;;;;;;;1.97;89.63;99474.39;109163;1253;138426;-60
2024/01/03 00:31:18;;;;;;;31.30;19.90;;;;;;;1.95;89.59;99471.36;109368;1251;60382;-60
2024/01/03 00:33:45;;;;;;;31.00;20.00;;;;;;;1.94;89.54;99467.18;109212;1252;138313;-59
2024/01/03 00:36:11;;;;;;;29.90;19.30;;;;;;;1.95;89.52;99462.70;109302;1252;66053;-59
2024/01/03 00:38:41;;;;;;;31.10;19.70;;;;;;;1.96;89.57;99457.72;109294;1253;71739;-58
2024/01/03 00:41:12;;;;;;;32.50;21.90;;;;;;;1.98;89.62;99460.07;108952;1253;138381;-59
2024/01/03 00:43:39;;;;;;;36.10;21.00;;;;;;;1.99;89.53;99454.55;105191;1253;62302;-59
2024/01/03 00:46:07;;;;;;;37.40;21.10;;;;;;;1.98;89.51;99453.48;109093;1253;138970;-60
2024/01/03 00:48:34;;;;;;;31.50;19.80;;;;;;;1.98;89.42;99451.42;109330;1253;65121;-60
2024/01/03 00:51:02;;;;;;;28.90;19.00;;;;;;;1.97;89.41;99445.46;109138;1254;141347;-60
2024/01/03 00:53:29;;;;;;;29.30;18.80;;;;;;;1.96;89.17;99443.54;109294;1253;59069;-59
2024/01/03 00:55:56;;;;;;;31.20;18.90;;;;;;;1.94;89.32;99438.30;107232;1254;61367;-58
2024/01/03 00:58:22;;;;;;;32.70;19.20;;;;;;;1.94;89.19;99439.85;105040;1256;138388;-59
2024/01/03 01:00:49;;;;;;;29.30;18.90;;;;;;;1.95;89.31;99440.59;105036;1258;66927;-60
2024/01/03 01:03:16;;;;;;;30.80;19.80;;;;;;;1.94;89.25;99439.30;104819;1259;139234;-60
2024/01/03 01:05:43;;;;;;;33.80;20.00;;;;;;;1.95;89.24;99436.41;105054;1256;61264;-60
2024/01/03 01:08:10;;;;;;;32.70;19.90;;;;;;;1.97;89.55;99433.75;105171;1254;61509;-60
2024/01/03 01:10:36;;;;;;;34.60;20.50;;;;;;;1.97;89.33;99430.09;105117;1255;138956;-59
2024/01/03 01:13:03;;;;;;;30.70;19.90;;;;;;;1.94;89.15;99424.43;104977;1253;67253;-58
2024/01/03 01:15:30;;;;;;;31.10;18.70;;;;;;;1.91;89.10;99422.05;104974;1256;138912;-59
2024/01/03 01:17:56;;;;;;;30.80;18.60;;;;;;;1.87;89.04;99416.73;105046;1254;61359;-60
2024/01/03 01:20:23;;;;;;;28.80;18.50;;;;;;;1.83;89.05;99413.31;105073;1253;61326;-59
2024/01/03 01:22:49;;;;;;;37.20;20.00;;;;;;;1.78;89.13;99408.27;105126;1254;138899;-60
2024/01/03 01:25:17;;;;;;;30.50;20.20;;;;;;;1.77;89.18;99407.71;105178;1256;66954;-60
2024/01/03 01:27:44;;;;;;;27.50;18.90;;;;;;;1.76;89.20;99406.13;104988;1256;139770;-60
2024/01/03 01:30:11;;;;;;;31.40;19.10;;;;;;;1.77;89.28;99400.27;105032;1254;61384;-61
2024/01/03 01:32:38;;;;;;;33.50;20.20;;;;;;;1.76;89.39;99396.45;105169;1251;61322;-58
2024/01/03 01:35:05;;;;;;;31.20;19.00;;;;;;;1.75;89.27;99395.36;104938;1254;138558;-61
2024/01/03 01:37:32;;;;;;;32.60;20.00;;;;;;;1.72;89.26;99389.70;109167;1254;66246;-59
2024/01/03 01:39:58;;;;;;;36.10;20.80;;;;;;;1.70;89.07;99387.03;109152;1254;138439;-59
2024/01/03 01:42:27;;;;;;;31.40;19.90;;;;;;;1.69;89.20;99381.64;105820;1252;61347;-60
2024/01/03 01:44:54;;;;;;;30.30;19.10;;;;;;;1.71;89.28;99376.70;109277;1253;59546;-59
2024/01/03 01:47:21;;;;;;;32.20;19.70;;;;;;;1.74;89.26;99368.85;109047;1253;138806;-58
2024/01/03 01:49:48;;;;;;;29.30;19.20;;;;;;;1.76;89.20;99364.44;109151;1253;65624;-59
2024/01/03 01:52:14;;;;;;;34.20;19.60;;;;;;;1.77;89.29;99358.41;109033;1254;138471;-60
2024/01/03 01:54:41;;;;;;;30.30;18.10;;;;;;;1.82;89.33;99355.13;108305;1256;61234;-59
2024/01/03 01:57:09;;;;;;;32.30;19.50;;;;;;;1.81;89.13;99348.38;105123;1255;139229;-60
2024/01/03 01:59:35;;;;;;;30.60;18.50;;;;;;;1.82;89.10;99345.95;105165;1254;75268;-61
2024/01/03 02:02:04;;;;;;;30.70;19.30;;;;;;;1.82;89.05;99338.37;104845;1254;66023;-59
2024/01/03 02:04:35;;;;;;;28.40;17.90;;;;;;;1.83;89.11;99336.49;104912;1259;138900;-59
2024/01/03 02:07:02;;;;;;;30.40;17.60;;;;;;;1.83;89.06;99334.27;105182;1256;61246;-59
2024/01/03 02:09:28;;;;;;;28.40;18.30;;;;;;;1.83;89.00;99330.28;105017;1254;138967;-59
2024/01/03 02:11:55;;;;;;;30.80;18.10;;;;;;;1.83;89.22;99326.98;105217;1251;74637;-58
2024/01/03 02:14:22;;;;;;;30.30;18.90;;;;;;;1.85;89.06;99323.77;105263;1256;68731;-58
2024/01/03 02:16:48;;;;;;;30.10;18.70;;;;;;;1.85;89.10;99321.70;104996;1255;138646;-67
2024/01/03 02:19:15;;;;;;;31.50;19.20;;;;;;;1.85;89.09;99315.97;105156;1255;62489;-66
2024/01/03 02:21:42;;;;;;;26.70;17.60;;;;;;;1.82;88.92;99315.03;105026;1264;139309;-65
2024/01/03 02:24:09;;;;;;;30.10;19.20;;;;;;;1.81;89.01;99307.56;105189;1257;73284;-66
2024/01/03 02:26:35;;;;;;;29.20;18.20;;;;;;;1.82;89.04;99306.02;105214;1256;65627;-66
2024/01/03 02:29:02;;;;;;;26.80;17.30;;;;;;;1.80;89.05;99301.09;104946;1259;139046;-64
2024/01/03 02:31:29;;;;;;;27.00;17.60;;;;;;;1.82;89.10;99297.19;105130;1254;61240;-65
2024/01/03 02:33:56;;;;;;;26.90;17.10;;;;;;;1.82;88.90;99295.10;104956;1256;139270;-65
2024/01/03 02:36:23;;;;;;;28.20;17.80;;;;;;;1.81;88.91;99295.45;105063;1257;75104;-65
2024/01/03 02:38:50;;;;;;;31.00;19.90;;;;;;;1.79;88.87;99292.59;105048;1254;65632;-65
2024/01/03 02:41:17;;;;;;;30.50;18.20;;;;;;;1.76;88.70;99287.30;109099;1252;138861;-65
2024/01/03 02:43:44;;;;;;;29.20;18.60;;;;;;;1.72;88.65;99284.92;106817;1253;61310;-64
2024/01/03 02:46:10;;;;;;;28.00;17.80;;;;;;;1.69;88.56;99280.11;105049;1253;138702;-67
2024/01/03 02:48:40;;;;;;;28.30;17.20;;;;;;;1.67;88.60;99277.80;105113;1253;74649;-59
2024/01/03 02:51:07;;;;;;;27.20;18.00;;;;;;;1.66;88.64;99278.28;105250;1256;139001;-60
2024/01/03 02:53:33;;;;;;;27.90;17.60;;;;;;;1.62;88.68;99276.77;104942;1256;72176;-66
2024/01/03 02:56:00;;;;;;;30.80;18.00;;;;;;;1.61;88.66;99271.20;104894;1261;61366;-65
2024/01/03 02:58:27;;;;;;;26.40;17.60;;;;;;;1.58;88.80;99266.58;109105;1253;138453;-65
2024/01/03 03:00:54;;;;;;;30.50;18.00;;;;;;;1.58;88.75;99263.11;109164;1253;75151;-65
2024/01/03 03:03:20;;;;;;;27.60;16.70;;;;;;;1.60;88.84;99259.91;109041;1256;139093;-65
2024/01/03 03:05:47;;;;;;;30.30;16.90;;;;;;;1.61;88.92;99256.48;107498;1257;72659;-66
2024/01/03 03:08:14;;;;;;;25.80;16.80;;;;;;;1.60;88.80;99253.33;105099;1254;59848;-66
2024/01/03 03:10:40;;;;;;;26.80;16.70;;;;;;;1.60;88.65;99251.27;105077;1252;139324;-66
2024/01/03 03:13:07;;;;;;;26.70;17.30;;;;;;;1.59;88.61;99246.23;105250;1256;73373;-66
2024/01/03 03:15:34;;;;;;;26.80;15.70;;;;;;;1.55;88.67;99240.89;104988;1257;140604;-65
2024/01/03 03:18:00;;;;;;;27.70;17.60;;;;;;;1.53;88.76;99238.40;105213;1256;72549;-66
2024/01/03 03:20:27;;;;;;;28.00;17.50;;;;;;;1.52;88.74;99233.70;105118;1254;61279;-65
2024/01/03 03:22:54;;;;;;;26.90;16.50;;;;;;;1.51;88.77;99234.19;105078;1257;140116;-65
2024/01/03 03:25:21;;;;;;;25.60;16.20;;;;;;;1.52;88.80;99236.63;105151;1256;72639;-66
2024/01/03 03:27:48;;;;;;;28.00;17.50;;;;;;;1.53;88.85;99236.66;105081;1257;138760;-65
2024/01/03 03:30:14;;;;;;;29.20;17.30;;;;;;;1.55;88.84;99229.64;105153;1255;72943;-67
2024/01/03 03:32:44;;;;;;;24.80;15.20;;;;;;;1.55;88.88;99223.59;105104;1257;61266;-67
2024/01/03 03:35:11;;;;;;;31.50;17.50;;;;;;;1.53;88.87;99224.04;108953;1258;138703;-66
2024/01/03 03:37:39;;;;;;;30.80;17.40;;;;;;;1.52;88.81;99218.98;108957;1251;74759;-66
2024/01/03 03:40:06;;;;;;;29.50;16.90;;;;;;;1.47;88.43;99221.73;109168;1253;139485;-66
2024/01/03 03:42:34;;;;;;;29.00;17.90;;;;;;;1.43;88.63;99219.36;109270;1254;71212;-66
2024/01/03 03:45:01;;;;;;;29.30;17.60;;;;;;;1.45;88.79;99214.73;107862;1253;139041;-66
2024/01/03 03:47:27;;;;;;;25.10;15.90;;;;;;;1.45;88.80;99214.08;105390;1256;61177;-65
2024/01/03 03:49:54;;;;;;;29.10;18.10;;;;;;;1.46;88.74;99212.02;105173;1256;74952;-66
2024/01/03 03:52:21;;;;;;;28.70;17.70;;;;;;;1.45;88.66;99207.86;105155;1252;138862;-65
2024/01/03 03:54:47;;;;;;;27.30;17.30;;;;;;;1.43;88.90;99200.20;105260;1254;73788;-65
2024/01/03 03:57:14;;;;;;;30.00;18.70;;;;;;;1.43;88.88;99196.18;105102;1254;138627;-64
2024/01/03 03:59:40;;;;;;;31.80;17.40;;;;;;;1.41;88.94;99192.13;105074;1263;61333;-64
2024/01/03 04:02:07;;;;;;;27.00;17.10;;;;;;;1.37;88.74;99185.77;105044;1256;73072;-64
2024/01/03 04:04:34;;;;;;;31.30;18.40;;;;;;;1.36;88.93;99184.38;105132;1257;138641;-64
2024/01/03 04:07:00;;;;;;;25.00;16.90;;;;;;;1.37;88.93;99184.76;105075;1254;70446;-65
2024/01/03 04:09:27;;;;;;;28.50;17.70;;;;;;;1.35;88.89;99189.52;105169;1256;139725;-65
2024/01/03 04:11:54;;;;;;;27.20;17.40;;;;;;;1.31;88.92;99187.48;105313;1256;61244;-64
2024/01/03 04:14:21;;;;;;;28.60;17.50;;;;;;;1.30;89.06;99181.23;105232;1256;75861;-64
2024/01/03 04:16:48;;;;;;;28.50;16.80;;;;;;;1.31;89.31;99176.27;105015;1256;140337;-65
2024/01/03 04:19:14;;;;;;;28.80;17.30;;;;;;;1.34;89.19;99171.84;105072;1259;73852;-65
2024/01/03 04:21:41;;;;;;;25.00;16.70;;;;;;;1.34;89.38;99168.56;104995;1253;140592;-66
2024/01/03 04:24:08;;;;;;;29.30;17.60;;;;;;;1.35;89.11;99166.88;105183;1257;61269;-66
2024/01/03 04:26:34;;;;;;;26.10;16.80;;;;;;;1.35;89.26;99162.52;105184;1265;75153;-65
2024/01/03 04:29:01;;;;;;;24.80;16.30;;;;;;;1.32;89.21;99163.69;105117;1254;138829;-65
2024/01/03 04:31:28;;;;;;;29.60;17.40;;;;;;;1.30;89.17;99161.17;105243;1254;76209;-66
2024/01/03 04:33:54;;;;;;;31.10;18.10;;;;;;;1.28;89.07;99161.93;105072;1253;138573;-65
2024/01/03 04:36:21;;;;;;;29.60;18.20;;;;;;;1.26;89.11;99162.21;105080;1257;61362;-65
2024/01/03 04:38:48;;;;;;;28.40;17.70;;;;;;;1.25;89.22;99160.45;105218;1257;76170;-65
2024/01/03 04:41:15;;;;;;;29.40;18.00;;;;;;;1.26;89.08;99161.36;105189;1255;138643;-65
2024/01/03 04:43:42;;;;;;;29.70;18.10;;;;;;;1.25;89.32;99162.03;105084;1254;73095;-66
2024/01/03 04:46:09;;;;;;;30.10;18.20;;;;;;;1.25;89.17;99163.21;104993;1257;138835;-66
2024/01/03 04:48:35;;;;;;;25.60;16.30;;;;;;;1.23;89.30;99160.20;105222;1254;61253;-59
2024/01/03 04:51:03;;;;;;;25.00;17.00;;;;;;;1.18;89.12;99154.69;104942;1257;138773;-59
2024/01/03 04:53:31;;;;;;;26.30;15.90;;;;;;;1.18;89.25;99155.87;109234;1253;67283;-59
2024/01/03 04:55:57;;;;;;;27.40;17.10;;;;;;;1.16;89.27;99154.79;109234;1254;71782;-59
2024/01/03 04:58:24;;;;;;;23.80;15.70;;;;;;;1.18;89.33;99153.29;108999;1257;138999;-59
2024/01/03 05:00:51;;;;;;;23.40;15.60;;;;;;;1.18;89.13;99151.89;109163;1253;59200;-59
2024/01/03 05:03:19;;;;;;;23.70;15.70;;;;;;;1.16;89.26;99154.93;109030;1252;139016;-59
2024/01/03 05:05:46;;;;;;;25.00;16.30;;;;;;;1.15;89.06;99157.15;109166;1252;64763;-59
2024/01/03 05:08:13;;;;;;;23.80;16.30;;;;;;;1.13;89.11;99157.96;105776;1256;72437;-60
2024/01/03 05:10:39;;;;;;;23.00;15.00;;;;;;;1.12;89.00;99151.00;105232;1253;141610;-65
2024/01/03 05:13:06;;;;;;;24.00;15.80;;;;;;;1.13;89.21;99148.98;105271;1255;61154;-65
2024/01/03 05:15:33;;;;;;;21.50;14.40;;;;;;;1.17;89.12;99151.17;105085;1252;141585;-66
2024/01/03 05:17:59;;;;;;;23.00;14.50;;;;;;;1.16;89.16;99146.50;105341;1257;66665;-66
2024/01/03 05:20:26;;;;;;;20.10;14.40;;;;;;;1.16;89.18;99148.41;105456;1255;73798;-64
2024/01/03 05:22:53;;;;;;;21.20;14.50;;;;;;;1.16;89.09;99146.30;105275;1254;138576;-64
2024/01/03 05:25:19;;;;;;;20.60;13.90;;;;;;;1.15;88.97;99143.89;105155;1264;61232;-65
2024/01/03 05:27:46;;;;;;;21.90;13.70;;;;;;;1.16;89.06;99146.67;105196;1257;138830;-65
2024/01/03 05:30:13;;;;;;;26.10;15.30;;;;;;;1.17;89.01;99143.23;105218;1257;65618;-65
2024/01/03 05:32:40;;;;;;;27.30;15.30;;;;;;;1.15;89.03;99143.67;105340;1257;72991;-65
2024/01/03 05:35:07;;;;;;;22.40;14.10;;;;;;;1.14;88.98;99142.80;105208;1261;138675;-65
2024/01/03 05:37:34;;;;;;;21.90;14.50;;;;;;;1.13;88.93;99142.40;108159;1254;59419;-65
2024/01/03 05:40:00;;;;;;;22.80;14.40;;;;;;;1.14;88.98;99139.50;105243;1257;138336;-65
2024/01/03 05:42:27;;;;;;;22.20;14.90;;;;;;;1.15;89.10;99139.39;105272;1256;66657;-64
2024/01/03 05:44:54;;;;;;;23.30;15.00;;;;;;;1.17;89.05;99144.61;105315;1257;72367;-67
2024/01/03 05:47:20;;;;;;;28.70;16.40;;;;;;;1.15;88.86;99140.59;105114;1263;138115;-65
2024/01/03 05:49:47;;;;;;;24.10;15.30;;;;;;;1.13;88.63;99141.73;105292;1257;61408;-65
2024/01/03 05:52:14;;;;;;;24.80;14.70;;;;;;;1.12;88.67;99142.38;105022;1253;138571;-65
2024/01/03 05:54:41;;;;;;;22.70;13.90;;;;;;;1.11;88.83;99139.07;105349;1256;66880;-66
2024/01/03 05:57:07;;;;;;;22.20;14.50;;;;;;;1.12;88.79;99138.90;105157;1256;138490;-60
2024/01/03 05:59:35;;;;;;;22.20;14.10;;;;;;;1.12;88.75;99138.04;105217;1254;61216;-58
2024/01/03 06:02:02;;;;;;;21.20;13.30;;;;;;;1.09;88.61;99136.20;109157;1253;59092;-60
2024/01/03 06:04:29;;;;;;;16.90;12.50;;;;;;;1.08;88.78;99141.70;108913;1253;138551;-65
2024/01/03 06:06:55;;;;;;;18.40;12.90;;;;;;;1.05;88.55;99139.85;109178;1253;64396;-65
2024/01/03 06:09:22;;;;;;;19.90;13.10;;;;;;;1.05;88.70;99137.98;106045;1253;138869;-66
2024/01/03 06:11:48;;;;;;;18.50;12.80;;;;;;;1.05;88.58;99138.47;105310;1252;61266;-66
2024/01/03 06:14:15;;;;;;;21.60;13.60;;;;;;;1.04;88.72;99132.55;105290;1253;61352;-60
2024/01/03 06:16:42;;;;;;;20.40;12.80;;;;;;;1.07;88.71;99134.24;105126;1253;138201;-60
2024/01/03 06:19:08;;;;;;;20.50;12.90;;;;;;;1.03;88.60;99137.73;105214;1259;66261;-65
2024/01/03 06:21:35;;;;;;;20.40;13.30;;;;;;;1.03;88.84;99137.52;105320;1254;139119;-66
2024/01/03 06:24:02;;;;;;;21.20;13.20;;;;;;;1.03;88.75;99139.60;109105;1253;59397;-65
2024/01/03 06:26:30;;;;;;;20.20;13.00;;;;;;;0.98;88.55;99141.33;109139;1253;60280;-65
2024/01/03 06:28:57;;;;;;;20.00;12.50;;;;;;;0.95;88.60;99136.41;109000;1254;138958;-65
2024/01/03 06:31:24;;;;;;;19.20;12.00;;;;;;;0.95;88.54;99138.81;109110;1254;66360;-66
2024/01/03 06:33:50;;;;;;;19.00;12.50;;;;;;;0.93;88.54;99138.58;109162;1253;138848;-65
2024/01/03 06:36:17;;;;;;;19.50;12.90;;;;;;;0.92;88.50;99139.02;107463;1254;61321;-66
2024/01/03 06:38:44;;;;;;;21.70;13.00;;;;;;;0.92;88.44;99135.93;105386;1261;61203;-66
2024/01/03 06:41:10;;;;;;;17.40;12.10;;;;;;;0.89;88.53;99131.70;105166;1254;138757;-67
2024/01/03 06:43:37;;;;;;;18.90;12.50;;;;;;;0.89;88.56;99134.27;105297;1254;66572;-67
2024/01/03 06:46:05;;;;;;;17.80;12.10;;;;;;;0.89;88.66;99133.05;105364;1256;138522;-65
2024/01/03 06:48:32;;;;;;;19.80;11.60;;;;;;;0.88;88.65;99133.55;105516;1258;61145;-66
2024/01/03 06:51:02;;;;;;;16.90;11.60;;;;;;;0.86;88.65;99131.90;105469;1254;61301;-67
2024/01/03 06:53:29;;;;;;;16.40;11.30;;;;;;;0.85;88.77;99131.16;105484;1255;74084;-66
2024/01/03 06:55:56;;;;;;;19.30;11.40;;;;;;;0.79;88.42;99131.64;105515;1256;67304;-66
2024/01/03 06:58:23;;;;;;;16.80;11.20;;;;;;;0.77;88.75;99134.02;105419;1255;138701;-60
2024/01/03 07:00:50;;;;;;;19.70;11.80;;;;;;;0.76;88.58;99133.24;105574;1251;61270;-60
2024/01/03 07:03:17;;;;;;;16.10;11.90;;;;;;;0.77;88.77;99131.05;105526;1257;139359;-61
2024/01/03 07:05:44;;;;;;;15.30;11.20;;;;;;;0.82;88.87;99130.53;109310;1253;75684;-59
2024/01/03 07:08:11;;;;;;;17.00;11.50;;;;;;;0.84;88.89;99133.20;109365;1253;64842;-60
2024/01/03 07:10:37;;;;;;;15.00;10.50;;;;;;;0.84;88.77;99134.24;109248;1252;138620;-59
2024/01/03 07:13:04;;;;;;;15.60;10.70;;;;;;;0.81;88.45;99133.08;109371;1252;58824;-59
2024/01/03 07:15:31;;;;;;;16.70;11.10;;;;;;;0.75;88.53;99131.17;107180;1256;138694;-60
2024/01/03 07:17:59;;;;;;;15.30;11.00;;;;;;;0.73;88.51;99134.02;105431;1254;73909;-60
2024/01/03 07:20:25;;;;;;;15.50;10.30;;;;;;;0.73;88.59;99131.58;105419;1257;67041;-66
2024/01/03 07:22:52;;;;;;;17.10;11.20;;;;;;;0.70;88.58;99129.41;105515;1254;138234;-66
2024/01/03 07:25:19;;;;;;;15.10;10.80;;;;;;;0.67;88.53;99127.73;105294;1254;61462;-67
2024/01/03 07:27:47;;;;;;;16.80;11.10;;;;;;;0.63;88.58;99126.18;105452;1253;138536;-65
2024/01/03 07:30:13;;;;;;;16.90;11.20;;;;;;;0.63;88.84;99129.31;109326;1252;74803;-66
2024/01/03 07:32:40;;;;;;;16.80;11.10;;;;;;;0.63;88.87;99132.05;109375;1251;64903;-66
2024/01/03 07:35:07;;;;;;;15.20;11.20;;;;;;;0.60;88.71;99131.27;107115;1254;139103;-67
2024/01/03 07:37:34;;;;;;;15.40;10.80;;;;;;;0.62;88.92;99129.96;109257;1253;59257;-65
2024/01/03 07:40:00;;;;;;;16.10;11.20;;;;;;;0.61;88.96;99131.66;109265;1252;138284;-60
2024/01/03 07:42:28;;;;;;;15.70;11.10;;;;;;;0.59;88.72;99131.25;109408;1252;75220;-60
2024/01/03 07:44:54;;;;;;;13.40;9.80;;;;;;;0.61;88.96;99131.98;109335;1254;66691;-66
2024/01/03 07:47:21;;;;;;;16.10;11.50;;;;;;;0.59;88.84;99133.13;108715;1253;138401;-66
2024/01/03 07:49:48;;;;;;;12.50;9.40;;;;;;;0.62;88.84;99129.42;105361;1254;61340;-61
2024/01/03 07:52:14;;;;;;;14.10;10.50;;;;;;;0.60;88.81;99131.42;105267;1254;138134;-61
2024/01/03 07:54:41;;;;;;;16.90;10.10;;;;;;;0.59;88.88;99132.09;105241;1253;73681;-60
2024/01/03 07:57:08;;;;;;;16.70;10.90;;;;;;;0.57;88.61;99132.71;105457;1253;138831;-65
2024/01/03 07:59:36;;;;;;;13.60;9.70;;;;;;;0.55;88.78;99127.30;105463;1254;72267;-66
2024/01/03 08:02:03;;;;;;;15.50;10.70;;;;;;;0.55;88.91;99129.70;105443;1253;61359;-60
2024/01/03 08:04:30;;;;;;;13.90;10.40;;;;;;;0.50;88.73;99123.83;105355;1256;138259;-66
2024/01/03 08:06:56;;;;;;;14.40;10.80;;;;;;;0.52;89.09;99124.20;105353;1253;75691;-62
2024/01/03 08:09:23;;;;;;;13.80;10.50;;;;;;;0.50;88.97;99122.60;105278;1254;138677;-60
2024/01/03 08:11:50;;;;;;;14.90;10.60;;;;;;;0.53;89.06;99122.73;105390;1257;73642;-66
2024/01/03 08:14:16;;;;;;;15.30;10.00;;;;;;;0.54;89.18;99124.31;105532;1254;61331;-66
2024/01/03 08:16:43;;;;;;;19.60;10.60;;;;;;;0.51;88.88;99127.10;105312;1254;138373;-66
2024/01/03 08:19:10;;;;;;;20.10;11.90;;;;;;;0.44;88.69;99126.34;105437;1257;75047;-65
2024/01/03 08:21:36;;;;;;;19.50;11.50;;;;;;;0.40;89.00;99125.15;105408;1256;138591;-65
2024/01/03 08:24:03;;;;;;;15.20;11.10;;;;;;;0.37;88.78;99119.33;105514;1257;73004;-66
2024/01/03 08:26:31;;;;;;;16.80;11.00;;;;;;;0.33;88.85;99120.38;105432;1256;61180;-62
2024/01/03 08:28:58;;;;;;;16.90;11.10;;;;;;;0.32;89.05;99118.25;105520;1253;138660;-60
2024/01/03 08:31:24;;;;;;;17.70;11.10;;;;;;;0.32;89.05;99118.77;105594;1252;75347;-60
2024/01/03 08:33:51;;;;;;;16.70;11.20;;;;;;;0.30;89.03;99117.67;105535;1252;138278;-60
2024/01/03 08:36:18;;;;;;;14.50;9.90;;;;;;;0.29;89.07;99122.79;105447;1254;73070;-61
2024/01/03 08:38:44;;;;;;;16.10;11.40;;;;;;;0.27;89.00;99124.96;105347;1253;61240;-60
2024/01/03 08:41:18;;;;;;;21.20;12.40;;;;;;;0.27;89.23;99121.70;105331;1253;138351;-61
2024/01/03 08:43:45;;;;;;;17.80;11.80;;;;;;;0.30;89.13;99124.92;105450;1256;74024;-59
2024/01/03 08:46:12;;;;;;;14.70;10.20;;;;;;;0.31;89.31;99123.61;107745;1254;138296;-60
2024/01/03 08:48:43;;;;;;;15.50;11.00;;;;;;;0.32;89.03;99125.71;105440;1254;73295;-61
2024/01/03 08:51:14;;;;;;;16.10;10.80;;;;;;;0.32;89.15;99131.23;105311;1254;138617;-59
2024/01/03 08:53:40;;;;;;;15.90;11.40;;;;;;;0.35;89.22;99128.56;105447;1254;61228;-60
2024/01/03 08:56:17;;;;;;;15.60;11.00;;;;;;;0.36;89.21;99132.42;105424;1254;73797;-59
2024/01/03 08:58:45;;;;;;;16.70;11.10;;;;;;;0.38;89.07;99127.84;109212;1253;138944;-60
2024/01/03 09:01:15;;;;;;;16.40;11.50;;;;;;;0.40;89.01;99133.25;109374;1253;70930;-60
2024/01/03 09:03:43;;;;;;;14.50;10.80;;;;;;;0.44;89.20;99134.77;106738;1253;138799;-65
2024/01/03 09:06:12;;;;;;;16.30;11.70;;;;;;;0.45;88.89;99140.52;105462;1252;61352;-61
2024/01/03 09:08:39;;;;;;;13.70;10.20;;;;;;;0.45;88.85;99141.55;105503;1253;74870;-61
2024/01/03 09:11:12;;;;;;;15.90;10.90;;;;;;;0.48;88.76;99142.01;105280;1253;139166;-65
2024/01/03 09:13:39;;;;;;;15.40;11.20;;;;;;;0.48;88.78;99143.38;105497;1256;71918;-66
2024/01/03 09:16:07;;;;;;;16.90;11.60;;;;;;;0.47;88.47;99141.27;109072;1252;138617;-66
2024/01/03 09:18:33;;;;;;;18.90;11.60;;;;;;;0.47;88.63;99141.45;109275;1254;61558;-67
2024/01/03 09:21:04;;;;;;;12.40;10.20;;;;;;;0.50;88.48;99141.92;108887;1256;76123;-61
2024/01/03 09:23:30;;;;;;;15.60;11.00;;;;;;;0.54;88.65;99144.48;109432;1253;65903;-61
2024/01/03 09:25:57;;;;;;;14.40;10.60;;;;;;;0.57;88.56;99142.20;109397;1253;72801;-61
2024/01/03 09:28:25;;;;;;;15.10;11.00;;;;;;;0.61;88.38;99140.45;109228;1252;138511;-61
2024/01/03 09:30:52;;;;;;;18.40;10.60;;;;;;;0.65;88.30;99140.63;109381;1252;61347;-65
2024/01/03 09:33:18;;;;;;;16.40;11.00;;;;;;;0.68;88.12;99141.06;109230;1251;138551;-65
2024/01/03 09:35:45;;;;;;;18.50;11.50;;;;;;;0.68;87.99;99143.64;109378;1253;65685;-61
2024/01/03 09:38:13;;;;;;;15.50;10.90;;;;;;;0.67;87.75;99138.63;109271;1253;72785;-66
2024/01/03 09:40:40;;;;;;;17.80;11.60;;;;;;;0.69;87.74;99143.19;109089;1253;195607;-61
2024/01/03 09:43:09;;;;;;;16.20;11.40;;;;;;;0.74;87.96;99143.36;105973;1252;61260;-60
2024/01/03 09:45:35;;;;;;;13.80;11.10;;;;;;;0.74;87.87;99140.78;109211;1253;138524;-61
2024/01/03 09:48:02;;;;;;;16.00;11.40;;;;;;;0.72;87.47;99140.89;109267;1252;65884;-61
2024/01/03 09:50:29;;;;;;;15.30;11.10;;;;;;;0.71;87.61;99136.02;107556;1255;72810;-65
2024/01/03 09:52:56;;;;;;;16.80;11.10;;;;;;;0.77;87.83;99132.61;105309;1256;138723;-66
2024/01/03 09:55:23;;;;;;;16.50;11.80;;;;;;;0.82;87.74;99125.01;105471;1254;61157;-66
2024/01/03 09:57:50;;;;;;;16.90;11.60;;;;;;;0.87;87.85;99121.58;105191;1257;138217;-66
2024/01/03 10:00:17;;;;;;;15.50;11.30;;;;;;;0.86;87.56;99120.16;105439;1254;65489;-60
2024/01/03 10:02:47;;;;;;;14.00;10.30;;;;;;;0.87;87.55;99116.75;106167;1257;73278;-61
2024/01/03 10:05:18;;;;;;;17.20;12.10;;;;;;;0.88;87.33;99122.81;107477;1253;138988;-60
2024/01/03 10:07:45;;;;;;;19.90;13.30;;;;;;;0.93;87.57;99127.36;105309;1253;61456;-61
2024/01/03 10:10:12;;;;;;;16.40;12.50;;;;;;;0.95;87.36;99129.30;105321;1253;138284;-67
2024/01/03 10:12:39;;;;;;;15.50;11.50;;;;;;;0.94;87.28;99126.84;105420;1253;65954;-61
2024/01/03 10:15:16;;;;;;;14.60;10.50;;;;;;;0.99;87.39;99124.26;105355;1254;138561;-61
2024/01/03 10:17:46;;;;;;;15.10;10.90;;;;;;;1.01;87.08;99119.15;106727;1256;61366;-60
2024/01/03 10:20:24;;;;;;;15.60;11.80;;;;;;;0.97;86.90;99120.23;109357;1251;60830;-62
2024/01/03 10:23:15;;;;;;;18.50;12.00;;;;;;;0.95;86.83;99121.89;105904;1253;138480;-60
2024/01/03 10:25:43;;;;;;;16.00;11.60;;;;;;;0.89;86.59;99127.70;105585;1252;65901;-60
2024/01/03 10:28:16;;;;;;;16.20;11.50;;;;;;;0.86;86.68;99130.86;105241;1253;138417;-61
2024/01/03 10:30:43;;;;;;;18.50;12.40;;;;;;;0.86;86.74;99129.64;109242;1252;59005;-60
2024/01/03 10:33:10;;;;;;;16.50;11.40;;;;;;;0.78;86.56;99128.84;109237;1252;138991;-60
2024/01/03 10:35:37;;;;;;;16.00;11.20;;;;;;;0.74;86.73;99127.50;109371;1252;75591;-61
2024/01/03 10:38:04;;;;;;;19.50;12.40;;;;;;;0.77;86.72;99126.41;109372;1253;66814;-60
2024/01/03 10:40:32;;;;;;;17.90;11.80;;;;;;;0.80;86.83;99124.95;109233;1252;138377;-59
2024/01/03 10:42:59;;;;;;;21.10;12.70;;;;;;;0.88;86.98;99128.16;109264;1253;59136;-61
2024/01/03 10:45:26;;;;;;;16.60;11.10;;;;;;;0.92;86.84;99123.52;109283;1252;138844;-60
2024/01/03 10:47:53;;;;;;;16.10;11.40;;;;;;;0.95;86.62;99121.04;109388;1251;74475;-60
2024/01/03 10:50:20;;;;;;;18.80;12.80;;;;;;;1.00;86.60;99116.02;109411;1253;64213;-60
2024/01/03 10:52:47;;;;;;;18.00;12.70;;;;;;;0.98;86.24;99110.08;109148;1251;138933;-60
2024/01/03 10:55:19;;;;;;;19.70;13.50;;;;;;;0.97;86.20;99112.10;109329;1251;58988;-60
2024/01/03 10:58:02;;;;;;;19.50;11.60;;;;;;;0.93;86.06;99110.26;108453;1253;139258;-59
2024/01/03 11:00:38;;;;;;;17.20;12.00;;;;;;;0.93;86.03;99109.90;109326;1253;74477;-60
2024/01/03 11:03:14;;;;;;;19.50;12.30;;;;;;;0.93;86.07;99104.89;108785;1258;138527;-59
2024/01/03 11:05:53;;;;;;;18.50;13.30;;;;;;;0.96;86.06;99104.82;109336;1253;72967;-61
2024/01/03 11:08:20;;;;;;;18.50;11.70;;;;;;;0.97;86.29;99111.58;108702;1253;58920;-60
2024/01/03 11:10:51;;;;;;;16.40;12.60;;;;;;;1.01;86.41;99111.55;105212;1253;138688;-60
2024/01/03 11:13:28;;;;;;;16.30;11.40;;;;;;;1.03;85.98;99107.83;109374;1252;74718;-60
2024/01/03 11:15:58;;;;;;;16.00;10.90;;;;;;;1.06;85.91;99107.28;109274;1252;139035;-60